createdAt,value
2018-12-25T00:01:30.695Z,91.50
2018-12-25T00:04:00.259Z,91.40
2018-12-25T00:06:29.715Z,91.30
2018-12-25T00:08:59.250Z,91.30
2018-12-25T00:11:28.629Z,91.30
2018-12-25T00:13:58.058Z,91.40
2018-12-25T00:16:27.557Z,91.50
2018-12-25T00:18:56.907Z,91.20
2018-12-25T00:21:26.257Z,91.30
2018-12-25T00:23:55.678Z,91.40
2018-12-25T00:26:25.071Z,91.20
2018-12-25T00:28:54.507Z,91.30
2018-12-25T00:31:24.056Z,91.40
2018-12-25T00:33:53.459Z,91.50
2018-12-25T00:36:23.050Z,91.30
2018-12-25T00:38:52.507Z,91.10
2018-12-25T00:41:21.923Z,91.00
2018-12-25T00:43:51.713Z,91.10
2018-12-25T00:46:21.254Z,90.80
2018-12-25T00:48:50.601Z,90.90
2018-12-25T00:51:20.054Z,90.80
2018-12-25T00:53:49.521Z,90.90
2018-12-25T00:56:18.958Z,91.00
2018-12-25T00:58:48.637Z,91.10
2018-12-25T01:01:18.076Z,90.90
2018-12-25T01:03:47.492Z,91.00
2018-12-25T01:06:16.980Z,91.00
2018-12-25T01:08:46.712Z,90.90
2018-12-25T01:11:16.218Z,90.70
2018-12-25T01:13:45.611Z,90.80
2018-12-25T01:16:15.071Z,90.70
2018-12-25T01:18:44.504Z,90.70
2018-12-25T01:21:13.949Z,90.70
2018-12-25T01:23:43.545Z,91.00
2018-12-25T01:26:13.000Z,91.10
2018-12-25T01:28:42.515Z,91.00
2018-12-25T01:31:11.921Z,91.00
2018-12-25T01:33:41.396Z,91.00
2018-12-25T01:36:10.990Z,91.00
2018-12-25T01:38:40.537Z,91.00
2018-12-25T01:41:09.973Z,91.20
2018-12-25T01:43:39.348Z,91.50
2018-12-25T01:46:08.858Z,91.80
2018-12-25T01:48:38.229Z,92.00
2018-12-25T01:51:07.605Z,91.90
2018-12-25T01:53:37.014Z,91.90
2018-12-25T01:56:06.367Z,91.80
2018-12-25T01:58:35.697Z,91.80
2018-12-25T02:01:05.113Z,91.60
2018-12-25T02:03:34.555Z,91.60
2018-12-25T02:06:04.165Z,91.50
2018-12-25T02:08:33.657Z,91.50
2018-12-25T02:11:03.076Z,91.20
2018-12-25T02:13:32.448Z,91.30
2018-12-25T02:16:02.077Z,91.20
2018-12-25T02:18:31.821Z,91.00
2018-12-25T02:21:01.340Z,91.00
2018-12-25T02:23:30.744Z,91.10
2018-12-25T02:26:00.109Z,91.30
2018-12-25T02:28:29.558Z,91.50
2018-12-25T02:30:58.949Z,91.70
2018-12-25T02:33:31.154Z,91.40
2018-12-25T02:36:00.613Z,91.60
2018-12-25T02:38:30.019Z,91.80
2018-12-25T02:40:59.435Z,92.20
2018-12-25T02:43:28.796Z,92.60
2018-12-25T02:45:58.212Z,92.70
2018-12-25T02:48:27.581Z,92.60
2018-12-25T02:50:57.007Z,92.40
2018-12-25T02:53:26.520Z,92.30
2018-12-25T02:55:55.925Z,92.10
2018-12-25T02:58:25.313Z,91.90
2018-12-25T03:00:54.740Z,91.60
2018-12-25T03:03:24.154Z,91.30
2018-12-25T03:05:53.567Z,91.40
2018-12-25T03:08:23.081Z,91.40
2018-12-25T03:10:52.494Z,91.50
2018-12-25T03:13:21.877Z,91.70
2018-12-25T03:15:51.305Z,92.00
2018-12-25T03:18:20.813Z,92.20
2018-12-25T03:20:50.297Z,92.30
2018-12-25T03:23:19.744Z,92.50
2018-12-25T03:25:49.126Z,92.60
2018-12-25T03:28:18.585Z,92.70
2018-12-25T03:30:48.041Z,92.70
2018-12-25T03:33:17.485Z,92.70
2018-12-25T03:35:46.903Z,92.70
2018-12-25T03:38:16.395Z,92.70
2018-12-25T03:40:45.767Z,92.70
2018-12-25T03:43:15.129Z,92.70
2018-12-25T03:45:44.561Z,92.60
2018-12-25T03:48:14.049Z,92.70
2018-12-25T03:50:43.385Z,92.60
2018-12-25T03:53:12.806Z,92.50
2018-12-25T03:55:42.271Z,92.40
2018-12-25T03:58:20.939Z,92.30
2018-12-25T04:00:50.337Z,92.40
2018-12-25T04:03:19.754Z,92.30
2018-12-25T04:05:49.215Z,92.30
2018-12-25T04:08:18.614Z,92.20
2018-12-25T04:10:48.031Z,92.10
2018-12-25T04:13:17.444Z,92.20
2018-12-25T04:15:46.801Z,92.20
2018-12-25T04:18:16.215Z,92.40
2018-12-25T04:20:45.727Z,92.10
2018-12-25T04:23:15.183Z,92.00
2018-12-25T04:25:44.630Z,92.00
2018-12-25T04:28:14.100Z,91.90
2018-12-25T04:30:43.482Z,91.80
2018-12-25T04:33:12.843Z,91.90
2018-12-25T04:35:42.338Z,91.80
2018-12-25T04:38:11.764Z,91.80
2018-12-25T04:40:41.198Z,91.60
2018-12-25T04:43:10.687Z,91.50
2018-12-25T04:45:40.128Z,91.50
2018-12-25T04:48:09.540Z,91.20
2018-12-25T04:50:38.997Z,91.00
2018-12-25T04:53:08.430Z,90.90
2018-12-25T04:55:37.797Z,91.20
2018-12-25T04:58:07.227Z,90.90
2018-12-25T05:00:36.635Z,90.70
2018-12-25T05:03:06.028Z,90.70
2018-12-25T05:05:35.495Z,90.70
2018-12-25T05:08:04.881Z,90.60
2018-12-25T05:10:34.279Z,90.50
2018-12-25T05:13:03.749Z,90.30
2018-12-25T05:15:33.126Z,90.20
2018-12-25T05:18:02.597Z,90.30
2018-12-25T05:20:37.891Z,90.20
2018-12-25T05:23:03.185Z,90.20
2018-12-25T05:25:32.568Z,90.10
2018-12-25T05:28:02.053Z,89.80
2018-12-25T05:30:31.404Z,89.30
2018-12-25T05:33:00.762Z,89.10
2018-12-25T05:35:30.240Z,88.90
2018-12-25T05:37:59.680Z,88.20
2018-12-25T05:40:29.094Z,88.30
2018-12-25T05:42:58.509Z,88.20
2018-12-25T05:45:28.011Z,88.50
2018-12-25T05:47:57.349Z,88.70
2018-12-25T05:50:26.737Z,88.80
2018-12-25T05:52:56.086Z,88.50
2018-12-25T05:55:25.463Z,88.70
2018-12-25T05:57:54.939Z,88.70
2018-12-25T06:00:24.358Z,88.60
2018-12-25T06:02:53.764Z,88.50
2018-12-25T06:05:23.191Z,88.40
2018-12-25T06:07:52.520Z,88.30
2018-12-25T06:10:21.918Z,88.10
2018-12-25T06:12:51.321Z,88.30
2018-12-25T06:15:20.737Z,88.40
2018-12-25T06:17:50.085Z,88.20
2018-12-25T06:20:19.591Z,88.10
2018-12-25T06:22:48.990Z,88.20
2018-12-25T06:25:18.334Z,88.40
2018-12-25T06:27:47.815Z,88.30
2018-12-25T06:30:17.215Z,88.20
2018-12-25T06:32:46.549Z,88.30
2018-12-25T06:35:16.023Z,88.70
2018-12-25T06:37:45.424Z,88.80
2018-12-25T06:40:14.778Z,89.10
2018-12-25T06:42:44.177Z,89.50
2018-12-25T06:45:13.621Z,89.50
2018-12-25T06:47:43.033Z,89.10
2018-12-25T06:50:12.528Z,88.90
2018-12-25T06:52:41.928Z,89.10
2018-12-25T06:55:11.292Z,88.50
2018-12-25T06:57:40.690Z,87.90
2018-12-25T07:00:10.065Z,87.90
2018-12-25T07:02:39.457Z,87.70
2018-12-25T07:05:08.970Z,87.20
2018-12-25T07:07:38.415Z,87.70
2018-12-25T07:10:07.857Z,88.00
2018-12-25T07:12:37.481Z,88.50
2018-12-25T07:15:06.867Z,88.90
2018-12-25T07:17:36.331Z,88.60
2018-12-25T07:20:06.130Z,88.70
2018-12-25T07:22:35.554Z,88.80
2018-12-25T07:25:05.021Z,88.90
2018-12-25T07:27:34.501Z,89.20
2018-12-25T07:30:04.084Z,89.30
2018-12-25T07:32:33.497Z,89.40
2018-12-25T07:35:02.977Z,89.20
2018-12-25T07:37:32.410Z,89.20
2018-12-25T07:40:01.757Z,89.40
2018-12-25T07:42:31.182Z,89.10
2018-12-25T07:45:00.522Z,89.00
2018-12-25T07:47:29.958Z,89.10
2018-12-25T07:49:59.375Z,89.00
2018-12-25T07:52:28.737Z,89.20
2018-12-25T07:54:58.122Z,89.30
2018-12-25T07:57:27.581Z,89.50
2018-12-25T07:59:56.953Z,89.90
2018-12-25T08:02:26.366Z,90.00
2018-12-25T08:04:55.781Z,90.00
2018-12-25T08:07:25.147Z,90.00
2018-12-25T08:09:54.567Z,90.00
2018-12-25T08:12:24.066Z,89.80
2018-12-25T08:14:53.513Z,89.50
2018-12-25T08:17:22.922Z,89.60
2018-12-25T08:19:52.323Z,89.90
2018-12-25T08:22:21.721Z,90.00
2018-12-25T08:24:51.160Z,90.10
2018-12-25T08:27:20.603Z,90.20
2018-12-25T08:29:50.038Z,90.30
2018-12-25T08:32:19.405Z,90.40
2018-12-25T08:34:48.878Z,90.40
2018-12-25T08:37:18.230Z,90.50
2018-12-25T08:39:47.573Z,90.80
2018-12-25T08:42:17.104Z,91.00
2018-12-25T08:44:46.563Z,91.20
2018-12-25T08:47:15.995Z,91.40
2018-12-25T08:49:45.516Z,91.60
2018-12-25T08:52:14.928Z,92.10
2018-12-25T08:54:44.285Z,91.90
2018-12-25T08:57:13.704Z,92.00
2018-12-25T08:59:43.073Z,92.20
2018-12-25T09:02:12.508Z,92.30
2018-12-25T09:04:41.918Z,92.40
2018-12-25T09:07:11.287Z,92.40
2018-12-25T09:09:40.686Z,91.80
2018-12-25T09:12:10.159Z,91.90
2018-12-25T09:14:39.958Z,92.10
2018-12-25T09:17:09.391Z,91.90
2018-12-25T09:19:38.927Z,91.80
2018-12-25T09:22:08.277Z,91.20
2018-12-25T09:24:37.655Z,90.70
2018-12-25T09:27:07.148Z,90.30
2018-12-25T09:29:36.543Z,90.70
2018-12-25T09:32:05.890Z,90.60
2018-12-25T09:34:35.325Z,90.80
2018-12-25T09:37:04.738Z,90.90
2018-12-25T09:39:34.138Z,90.90
2018-12-25T09:42:03.651Z,90.60
2018-12-25T09:44:33.077Z,90.50
2018-12-25T09:47:02.533Z,90.70
2018-12-25T09:49:31.997Z,90.80
2018-12-25T09:52:01.464Z,90.80
2018-12-25T09:54:30.888Z,91.00
2018-12-25T09:57:00.311Z,91.10
2018-12-25T09:59:29.729Z,91.30
2018-12-25T10:01:59.101Z,91.30
2018-12-25T10:04:28.543Z,91.20
2018-12-25T10:06:57.999Z,91.30
2018-12-25T10:09:27.433Z,91.10
2018-12-25T10:11:56.935Z,91.10
2018-12-25T10:14:26.368Z,91.20
2018-12-25T10:16:55.855Z,91.20
2018-12-25T10:19:25.408Z,91.30
2018-12-25T10:22:02.790Z,91.50
2018-12-25T10:24:25.848Z,91.60
2018-12-25T10:26:55.274Z,91.20
2018-12-25T10:29:24.609Z,91.50
2018-12-25T10:31:54.055Z,91.70
2018-12-25T10:34:23.468Z,91.90
2018-12-25T10:36:52.800Z,92.30
2018-12-25T10:39:22.570Z,92.60
2018-12-25T10:41:51.992Z,92.60
2018-12-25T10:44:21.347Z,92.50
2018-12-25T10:46:50.800Z,92.30
2018-12-25T10:49:20.240Z,91.90
2018-12-25T10:51:49.615Z,91.50
2018-12-25T10:54:19.058Z,91.40
2018-12-25T10:56:48.526Z,91.50
2018-12-25T10:59:18.192Z,91.00
2018-12-25T11:01:47.860Z,91.80
2018-12-25T11:04:17.350Z,92.70
2018-12-25T11:06:46.799Z,93.00
2018-12-25T11:09:16.259Z,92.80
2018-12-25T11:11:45.634Z,92.70
2018-12-25T11:14:14.964Z,92.60
2018-12-25T11:16:44.302Z,92.70
2018-12-25T11:19:13.668Z,92.70
2018-12-25T11:21:43.079Z,92.60
2018-12-25T11:24:12.506Z,92.40
2018-12-25T11:26:41.914Z,92.50
2018-12-25T11:29:11.317Z,92.70
2018-12-25T11:31:40.749Z,92.90
2018-12-25T11:34:10.261Z,92.90
2018-12-25T11:36:39.741Z,92.70
2018-12-25T11:39:09.126Z,92.80
2018-12-25T11:41:38.686Z,92.80
2018-12-25T11:44:08.142Z,92.90
2018-12-25T11:46:37.532Z,92.90
2018-12-25T11:49:07.058Z,92.90
2018-12-25T11:51:36.465Z,93.10
2018-12-25T11:54:05.860Z,93.20
2018-12-25T11:56:35.373Z,93.00
2018-12-25T11:59:05.032Z,92.70
2018-12-25T12:01:34.443Z,92.50
2018-12-25T12:04:03.940Z,92.30
2018-12-25T12:06:33.334Z,92.30
2018-12-25T12:09:02.894Z,92.20
2018-12-25T12:11:32.321Z,91.80
2018-12-25T12:14:01.694Z,92.00
2018-12-25T12:16:31.117Z,92.20
2018-12-25T12:19:00.731Z,92.30
2018-12-25T12:21:30.114Z,92.30
2018-12-25T12:23:59.589Z,92.30
2018-12-25T12:26:29.082Z,92.10
2018-12-25T12:28:58.525Z,92.00
2018-12-25T12:31:27.863Z,92.10
2018-12-25T12:33:57.359Z,92.00
2018-12-25T12:36:26.799Z,92.10
2018-12-25T12:38:56.204Z,92.00
2018-12-25T12:41:25.583Z,91.90
2018-12-25T12:43:54.948Z,91.70
2018-12-25T12:46:24.280Z,91.20
2018-12-25T12:48:53.744Z,91.20
2018-12-25T12:51:23.080Z,91.20
2018-12-25T12:53:52.421Z,91.10
2018-12-25T12:56:21.846Z,91.20
2018-12-25T12:58:51.285Z,91.90
2018-12-25T13:01:20.654Z,91.30
2018-12-25T13:03:50.164Z,91.40
2018-12-25T13:06:19.573Z,91.40
2018-12-25T13:08:48.978Z,91.30
2018-12-25T13:11:18.386Z,91.80
2018-12-25T13:13:47.796Z,91.50
2018-12-25T13:16:17.271Z,91.20
2018-12-25T13:18:46.758Z,91.00
2018-12-25T13:21:16.206Z,91.30
2018-12-25T13:23:45.558Z,90.90
2018-12-25T13:26:14.987Z,91.00
2018-12-25T13:28:44.403Z,91.00
2018-12-25T13:31:13.754Z,90.90
2018-12-25T13:33:43.221Z,90.90
2018-12-25T13:36:12.637Z,90.60
2018-12-25T13:38:42.012Z,90.50
2018-12-25T13:41:11.482Z,90.50
2018-12-25T13:43:40.843Z,90.60
2018-12-25T13:46:10.249Z,90.60
2018-12-25T13:48:39.594Z,90.20
2018-12-25T13:51:08.962Z,90.10
2018-12-25T13:53:38.400Z,90.00
2018-12-25T13:56:07.909Z,90.10
2018-12-25T13:58:37.348Z,90.10
2018-12-25T14:01:06.759Z,90.60
2018-12-25T14:03:36.150Z,90.20
2018-12-25T14:06:05.520Z,90.20
2018-12-25T14:08:34.858Z,90.50
2018-12-25T14:11:04.388Z,90.60
2018-12-25T14:13:33.834Z,90.60
2018-12-25T14:16:03.331Z,90.70
2018-12-25T14:18:32.751Z,90.90
2018-12-25T14:21:02.199Z,91.10
2018-12-25T14:23:31.672Z,91.20
2018-12-25T14:26:01.144Z,91.30
2018-12-25T14:28:30.532Z,91.40
2018-12-25T14:30:59.910Z,91.50
2018-12-25T14:33:29.455Z,91.50
2018-12-25T14:35:58.875Z,91.60
2018-12-25T14:38:28.254Z,91.70
2018-12-25T14:40:57.665Z,91.60
2018-12-25T14:43:27.045Z,91.60
2018-12-25T14:45:56.490Z,91.70
2018-12-25T14:48:25.904Z,91.60
2018-12-25T14:50:55.268Z,91.60
2018-12-25T14:53:24.631Z,91.70
2018-12-25T14:55:54.143Z,91.80
2018-12-25T14:58:23.570Z,91.90
2018-12-25T15:00:53.471Z,91.80
2018-12-25T15:03:23.100Z,91.80
2018-12-25T15:05:52.589Z,91.60
2018-12-25T15:08:22.027Z,91.50
2018-12-25T15:10:51.462Z,91.50
2018-12-25T15:13:20.805Z,91.60
2018-12-25T15:15:50.173Z,91.60
2018-12-25T15:18:19.660Z,91.70
2018-12-25T15:20:49.085Z,91.70
2018-12-25T15:23:18.483Z,91.60
2018-12-25T15:25:48.097Z,91.60
2018-12-25T15:28:17.550Z,91.70
2018-12-25T15:30:46.915Z,91.60
2018-12-25T15:33:16.387Z,91.60
2018-12-25T15:35:45.858Z,91.60
2018-12-25T15:38:15.277Z,91.70
2018-12-25T15:40:44.671Z,91.60
2018-12-25T15:43:14.115Z,91.60
2018-12-25T15:45:43.452Z,91.60
2018-12-25T15:48:12.850Z,91.70
2018-12-25T15:50:42.262Z,91.80
2018-12-25T15:53:11.600Z,91.80
2018-12-25T15:55:41.061Z,91.90
2018-12-25T15:58:11.485Z,92.00
2018-12-25T16:00:40.918Z,92.20
2018-12-25T16:03:10.340Z,92.20
2018-12-25T16:05:39.706Z,92.40
2018-12-25T16:08:09.090Z,92.40
2018-12-25T16:10:38.492Z,92.50
2018-12-25T16:13:07.841Z,92.60
2018-12-25T16:15:37.287Z,92.80
2018-12-25T16:18:06.809Z,92.90
2018-12-25T16:20:36.177Z,92.90
2018-12-25T16:23:05.522Z,92.90
2018-12-25T16:25:34.955Z,92.80
2018-12-25T16:28:05.113Z,92.70
2018-12-25T16:30:34.530Z,92.60
2018-12-25T16:33:03.945Z,92.70
2018-12-25T16:35:33.321Z,92.70
2018-12-25T16:38:02.788Z,92.70
2018-12-25T16:40:32.262Z,92.70
2018-12-25T16:43:01.735Z,92.70
2018-12-25T16:45:31.171Z,92.60
2018-12-25T16:48:00.580Z,92.50
2018-12-25T16:50:29.949Z,92.50
2018-12-25T16:52:59.312Z,92.50
2018-12-25T16:55:28.717Z,92.40
2018-12-25T16:57:58.173Z,92.40
2018-12-25T17:00:27.549Z,92.60
2018-12-25T17:02:56.978Z,92.60
2018-12-25T17:05:26.401Z,92.90
2018-12-25T17:07:57.399Z,93.00
2018-12-25T17:10:26.924Z,92.90
2018-12-25T17:12:56.376Z,92.90
2018-12-25T17:15:25.736Z,93.10
2018-12-25T17:17:55.122Z,93.40
2018-12-25T17:20:24.528Z,93.60
2018-12-25T17:22:53.963Z,93.70
2018-12-25T17:25:23.490Z,93.70
2018-12-25T17:27:52.916Z,93.60
2018-12-25T17:30:22.410Z,93.80
2018-12-25T17:32:51.932Z,94.20
2018-12-25T17:35:21.395Z,94.50
2018-12-25T17:37:50.828Z,94.50
2018-12-25T17:40:20.337Z,94.40
2018-12-25T17:42:49.751Z,94.30
2018-12-25T17:45:19.103Z,94.10
2018-12-25T17:47:48.513Z,94.00
2018-12-25T17:50:17.905Z,93.80
2018-12-25T17:52:47.344Z,93.60
2018-12-25T17:55:16.812Z,93.60
2018-12-25T17:57:46.142Z,93.40
2018-12-25T18:00:15.581Z,93.40
2018-12-25T18:02:45.043Z,93.30
2018-12-25T18:05:14.477Z,93.20
2018-12-25T18:07:44.007Z,93.10
2018-12-25T18:10:13.521Z,93.40
2018-12-25T18:12:42.881Z,93.00
2018-12-25T18:15:12.329Z,92.90
2018-12-25T18:17:41.736Z,92.80
2018-12-25T18:20:11.185Z,92.80
2018-12-25T18:22:40.601Z,92.80
2018-12-25T18:25:10.085Z,92.70
2018-12-25T18:27:40.786Z,92.70
2018-12-25T18:30:10.345Z,92.60
2018-12-25T18:32:39.832Z,92.50
2018-12-25T18:35:09.193Z,92.50
2018-12-25T18:37:38.659Z,92.40
2018-12-25T18:40:08.164Z,92.40
2018-12-25T18:42:37.553Z,92.30
2018-12-25T18:45:07.318Z,92.30
2018-12-25T18:47:36.702Z,92.30
2018-12-25T18:50:07.611Z,92.20
2018-12-25T18:52:37.057Z,92.20
2018-12-25T18:55:07.288Z,92.10
2018-12-25T18:57:36.637Z,92.10
2018-12-25T19:00:07.874Z,92.10
2018-12-25T19:02:37.265Z,92.00
2018-12-25T19:05:06.691Z,91.90
2018-12-25T19:07:36.119Z,91.80
2018-12-25T19:10:07.072Z,91.70
2018-12-25T19:12:36.518Z,91.60
2018-12-25T19:15:25.744Z,91.50
2018-12-25T19:17:57.214Z,91.50
2018-12-25T19:20:26.569Z,91.40
2018-12-25T19:22:56.002Z,91.20
2018-12-25T19:25:25.398Z,91.20
2018-12-25T19:27:54.855Z,91.20
2018-12-25T19:30:25.849Z,91.10
2018-12-25T19:32:55.219Z,91.40
2018-12-25T19:35:24.633Z,91.00
2018-12-25T19:37:54.059Z,91.00
2018-12-25T19:40:23.451Z,90.80
2018-12-25T19:42:52.782Z,90.80
2018-12-25T19:45:23.178Z,90.70
2018-12-25T19:47:52.607Z,90.70
2018-12-25T19:50:22.040Z,90.70
2018-12-25T19:52:51.499Z,90.60
2018-12-25T19:55:20.946Z,90.60
2018-12-25T19:57:50.395Z,90.40
2018-12-25T20:00:19.860Z,90.50
2018-12-25T20:02:57.349Z,90.50
2018-12-25T20:06:13.921Z,90.40
2018-12-25T20:09:22.597Z,89.70
2018-12-25T20:13:00.638Z,89.40
2018-12-25T20:16:20.087Z,88.30
2018-12-25T20:19:25.177Z,88.70
2018-12-25T20:22:08.256Z,88.60
2018-12-25T20:25:21.023Z,89.10
2018-12-25T20:28:21.095Z,89.50
2018-12-25T20:31:27.340Z,89.50
2018-12-25T20:34:39.629Z,88.30
2018-12-25T20:37:59.725Z,88.50
2018-12-25T20:41:12.619Z,89.50
2018-12-25T20:44:31.323Z,90.10
2018-12-25T20:47:43.951Z,91.20
2018-12-25T20:50:59.042Z,92.00
2018-12-25T20:54:24.648Z,93.40
2018-12-25T20:57:31.083Z,95.10
2018-12-25T21:00:47.605Z,96.30
2018-12-25T21:04:12.845Z,97.00
2018-12-25T21:07:16.558Z,97.70
2018-12-25T21:10:30.205Z,98.20
2018-12-25T21:13:36.550Z,98.70
2018-12-25T21:16:45.954Z,98.90
2018-12-25T21:20:08.734Z,99.10
2018-12-25T21:23:13.569Z,99.30
2018-12-25T21:26:18.667Z,99.40
2018-12-25T21:28:48.138Z,99.40
2018-12-25T21:31:17.525Z,99.40
2018-12-25T21:33:47.038Z,99.40
2018-12-25T21:36:16.507Z,99.30
2018-12-25T21:38:45.874Z,99.20
2018-12-25T21:41:17.553Z,99.00
2018-12-25T21:43:47.063Z,98.90
2018-12-25T21:46:17.129Z,98.50
2018-12-25T21:48:46.742Z,98.30
2018-12-25T21:51:16.385Z,98.10
2018-12-25T21:53:45.753Z,97.90
2018-12-25T21:56:15.180Z,97.90
2018-12-25T21:58:44.799Z,97.70
2018-12-25T22:01:14.417Z,97.20
2018-12-25T22:03:43.879Z,97.00
2018-12-25T22:06:13.474Z,96.90
2018-12-25T22:08:43.925Z,96.80
2018-12-25T22:11:13.347Z,96.70
2018-12-25T22:13:42.857Z,96.90
2018-12-25T22:16:12.280Z,96.80
2018-12-25T22:18:41.701Z,96.60
2018-12-25T22:21:11.201Z,96.40
2018-12-25T22:23:40.629Z,96.20
2018-12-25T22:26:10.033Z,96.00
2018-12-25T22:28:39.514Z,96.00
2018-12-25T22:31:08.952Z,96.00
2018-12-25T22:33:38.515Z,96.00
2018-12-25T22:36:07.982Z,95.80
2018-12-25T22:38:37.434Z,95.50
2018-12-25T22:41:06.869Z,95.40
2018-12-25T22:43:36.427Z,94.90
2018-12-25T22:46:05.880Z,95.00
2018-12-25T22:48:35.324Z,95.20
2018-12-25T22:51:04.817Z,95.80
2018-12-25T22:53:34.350Z,95.90
2018-12-25T22:56:03.785Z,96.10
2018-12-25T22:58:33.211Z,96.20
2018-12-25T23:01:02.790Z,96.10
2018-12-25T23:03:32.229Z,95.90
2018-12-25T23:06:01.641Z,95.70
2018-12-25T23:08:31.092Z,95.70
2018-12-25T23:11:00.570Z,95.70
2018-12-25T23:13:30.029Z,95.50
2018-12-25T23:15:59.421Z,95.50
2018-12-25T23:18:28.838Z,95.50
2018-12-25T23:20:58.377Z,95.40
2018-12-25T23:23:27.786Z,95.30
2018-12-25T23:25:57.235Z,95.20
2018-12-25T23:28:26.748Z,95.10
2018-12-25T23:30:56.120Z,94.90
2018-12-25T23:33:25.542Z,94.80
2018-12-25T23:35:55.037Z,94.40
2018-12-25T23:38:24.426Z,94.60
2018-12-25T23:40:53.887Z,94.40
2018-12-25T23:43:23.420Z,94.20
2018-12-25T23:45:52.889Z,94.20
2018-12-25T23:48:22.345Z,94.10
2018-12-25T23:50:51.814Z,94.00
2018-12-25T23:53:21.184Z,93.70
2018-12-25T23:55:53.045Z,93.40
2018-12-25T23:58:21.824Z,93.10
